Disclaimer

Please do not use the information listed here in-flight or in-navigation, as they are not provided to us by the airports but are provided by volunteers, so they might be outdated.

Search


Regions


Airport information page

Radio informations:
Tower (TWR) - 118.9 MHz

Airport informations:
Latitude: 00° 22' 41.43" N
Longitude: 006° 42' 43.75" E
Elevation: 33 feet - 10 meters
Operating hours: Remarks
Operating agency: Civil government, landing fees and diplomatic clearance may be required
Timezone: UTC 0
Fuel: Jet A1, without icing nhibitor.

115/145 octane gasoline, leaded, MIL-L-5572F (PURPLE)

73 octane gasoline, unleaded, No MIL Spec.

100/130 MIL Spec, low lead, aviation gasoline (BLUE)

Runway information:
11/29 - 7283 x 148 feet< - >2220 x 45 meters

Recent METARs:
FPST 122300Z 21002KT 9999 FEW020CB 27/24 Q1010 NOSIG
FPST 122300Z 21002KT 9999 FEW020CB 27/24 Q1010 NOSIG

Airport on the map: